Time;durP1;ratioP1;P1;durP2;ratioP2;P2;SDS_P1;SDS_P2;PMS_P1;PMS_P2;Temp;Humidity;BMP_temperature;BMP_pressure;BME280_temperature;BME280_humidity;BME280_pressure;Samples;Min_cycle;Max_cycle;Signal;HPM_P1;HPM_P2
2022/01/21 00:01:25;;;;;;;13.82;6.85;;;3.30;99.90;;;;;;5023287;28;20033;-92
2022/01/21 00:03:51;;;;;;;13.20;6.60;;;2.80;99.90;;;;;;5046593;28;20134;-91
2022/01/21 00:06:17;;;;;;;13.15;6.65;;;2.80;99.90;;;;;;5053504;28;20017;-92
2022/01/21 00:08:44;;;;;;;13.18;6.65;;;2.80;99.90;;;;;;5053186;28;20048;-92
2022/01/21 00:11:12;;;;;;;12.32;6.47;;;2.70;99.90;;;;;;5053531;28;20029;-92
2022/01/21 00:13:38;;;;;;;11.10;6.90;;;2.90;99.90;;;;;;5066148;28;20075;-91
2022/01/21 00:16:13;;;;;;;15.35;5.80;;;2.70;99.90;;;;;;5073284;28;20036;-92
2022/01/21 00:18:42;;;;;;;12.50;6.05;;;3.30;99.90;;;;;;5073264;28;20024;-92
2022/01/21 00:32:26;;;;;;;10.38;5.63;;;2.70;99.90;;;;;;5033400;28;20032;-91
2022/01/21 00:34:52;;;;;;;11.13;5.55;;;2.60;99.90;;;;;;5033148;28;20033;-91
2022/01/21 00:37:18;;;;;;;10.48;5.70;;;2.60;99.90;;;;;;5016110;28;20056;-90
2022/01/21 00:39:49;;;;;;;10.85;5.53;;;2.70;99.90;;;;;;5032721;28;20025;-91
2022/01/21 00:45:01;;;;;;;16.40;5.63;;;2.50;99.90;;;;;;4995395;28;20066;-92
2022/01/21 00:47:27;;;;;;;10.55;5.72;;;2.50;99.90;;;;;;4993407;28;20568;-91
2022/01/21 00:49:54;;;;;;;11.88;5.30;;;3.00;99.90;;;;;;4993536;28;20053;-91
2022/01/21 00:52:19;;;;;;;11.20;5.32;;;2.40;99.90;;;;;;5003936;28;20022;-91
2022/01/21 00:54:45;;;;;;;10.70;5.80;;;2.40;99.90;;;;;;5004948;28;20065;-91
2022/01/21 00:57:11;;;;;;;14.45;5.80;;;2.40;99.90;;;;;;4996230;28;20514;-91
2022/01/21 00:59:37;;;;;;;11.13;5.82;;;2.40;99.90;;;;;;4996300;28;20474;-91
2022/01/21 01:02:03;;;;;;;9.73;5.57;;;2.80;99.90;;;;;;5030237;28;20466;-90
2022/01/21 01:04:29;;;;;;;10.30;5.43;;;2.40;99.90;;;;;;5015828;28;20025;-91
2022/01/21 01:06:55;;;;;;;9.95;5.72;;;2.40;99.90;;;;;;5023029;28;20156;-91
2022/01/21 01:09:20;;;;;;;9.10;4.57;;;2.30;99.90;;;;;;5012726;28;20042;-92
2022/01/21 01:12:12;;;;;;;13.85;5.28;;;2.60;99.90;;;;;;5012696;28;20025;-92
2022/01/21 01:20:08;;;;;;;15.05;5.05;;;2.30;99.90;;;;;;5013212;28;20084;-91
2022/01/21 01:27:53;;;;;;;11.15;5.32;;;2.60;99.90;;;;;;5054002;28;20079;-90
2022/01/21 01:30:22;;;;;;;7.43;4.30;;;2.30;99.90;;;;;;5058152;28;20028;-92
2022/01/21 01:32:49;;;;;;;9.43;5.10;;;2.30;99.90;;;;;;5073067;28;20024;-91
2022/01/21 01:35:18;;;;;;;11.13;4.68;;;2.20;99.90;;;;;;5074587;28;20017;-91
2022/01/21 01:40:39;;;;;;;9.20;5.18;;;2.20;99.90;;;;;;5060182;28;20037;-91
2022/01/21 01:51:13;;;;;;;9.05;4.70;;;2.20;99.90;;;;;;5059882;28;20826;-91
2022/01/21 01:53:44;;;;;;;11.35;5.07;;;2.10;99.90;;;;;;5077135;28;20084;-91
2022/01/21 01:56:13;;;;;;;12.73;5.28;;;2.60;99.90;;;;;;5057553;28;20447;-91
2022/01/21 01:58:41;;;;;;;8.18;4.57;;;2.10;99.90;;;;;;5057629;28;20090;-91
2022/01/21 02:01:07;;;;;;;9.73;5.50;;;2.30;99.90;;;;;;5058014;28;20024;-91
2022/01/21 02:03:34;;;;;;;13.02;5.80;;;2.50;99.90;;;;;;5057364;28;20087;-92
2022/01/21 02:06:00;;;;;;;7.05;4.82;;;2.40;99.90;;;;;;5090149;28;20029;-91
2022/01/21 02:08:28;;;;;;;11.55;4.97;;;2.10;99.90;;;;;;5057340;28;20048;-91
2022/01/21 02:10:53;;;;;;;12.10;5.78;;;2.60;99.90;;;;;;5057079;28;20025;-90
2022/01/21 02:13:25;;;;;;;9.80;5.65;;;2.50;99.90;;;;;;5069160;28;20054;-91
2022/01/21 02:16:09;;;;;;;11.23;4.75;;;2.00;99.90;;;;;;5068970;28;20028;-91
2022/01/21 02:21:38;;;;;;;12.00;5.57;;;2.30;99.90;;;;;;5058004;28;20075;-91
2022/01/21 02:24:11;;;;;;;11.40;5.55;;;2.50;99.90;;;;;;5057009;28;20041;-91
2022/01/21 02:26:38;;;;;;;10.85;5.82;;;2.00;99.90;;;;;;5057295;28;20023;-89
2022/01/21 02:29:05;;;;;;;17.90;7.85;;;2.00;99.90;;;;;;5046950;28;20468;-90
2022/01/21 02:31:33;;;;;;;15.80;6.57;;;1.90;99.90;;;;;;5057309;28;20116;-91
2022/01/21 02:33:59;;;;;;;11.68;7.25;;;1.90;99.90;;;;;;5057083;28;20036;-91
2022/01/21 02:36:25;;;;;;;11.98;6.18;;;1.90;99.90;;;;;;5056025;28;20017;-90
2022/01/21 02:38:51;;;;;;;13.48;6.07;;;1.90;99.90;;;;;;5088994;28;20028;-91
2022/01/21 02:41:17;;;;;;;13.30;5.82;;;1.90;99.90;;;;;;5076579;28;20024;-91
2022/01/21 02:43:43;;;;;;;8.75;4.85;;;1.80;99.90;;;;;;5064674;28;20124;-91
2022/01/21 02:46:09;;;;;;;12.05;4.85;;;1.90;99.90;;;;;;5055568;28;20037;-91
2022/01/21 02:48:37;;;;;;;12.35;4.63;;;1.80;99.90;;;;;;5056798;28;20103;-91
2022/01/21 02:51:05;;;;;;;11.80;4.63;;;1.80;99.90;;;;;;5056951;28;20067;-91
2022/01/21 02:54:03;;;;;;;13.13;5.00;;;1.80;99.90;;;;;;5055113;28;20133;-91
2022/01/21 02:56:25;;;;;;;7.80;4.63;;;1.80;99.90;;;;;;5056514;28;20025;-91
2022/01/21 02:58:51;;;;;;;9.18;4.38;;;2.10;99.90;;;;;;5055383;28;20028;-91
2022/01/21 03:01:18;;;;;;;8.48;5.05;;;1.70;99.90;;;;;;5056107;28;20045;-91
2022/01/21 03:03:45;;;;;;;9.00;4.57;;;1.70;99.90;;;;;;5055434;28;20048;-91
2022/01/21 03:06:15;;;;;;;9.98;4.68;;;1.90;99.90;;;;;;5056358;28;20044;-91
2022/01/21 03:08:42;;;;;;;8.50;4.50;;;1.70;99.90;;;;;;5088704;28;20087;-89
2022/01/21 03:11:08;;;;;;;12.75;4.80;;;1.70;99.90;;;;;;5074709;28;20035;-91
2022/01/21 03:13:33;;;;;;;8.85;4.45;;;2.00;99.90;;;;;;5076639;28;20032;-91
2022/01/21 03:15:59;;;;;;;9.00;4.88;;;1.70;99.90;;;;;;5065805;28;20021;-90
2022/01/21 03:18:25;;;;;;;14.63;4.47;;;1.60;99.90;;;;;;5056191;28;20078;-91
2022/01/21 03:20:50;;;;;;;10.20;4.43;;;1.60;99.90;;;;;;5055304;28;20021;-90
2022/01/21 03:23:19;;;;;;;8.43;4.13;;;1.70;99.90;;;;;;5073004;28;20036;-91
2022/01/21 03:25:47;;;;;;;9.40;4.93;;;2.00;99.90;;;;;;5064277;28;20027;-90
2022/01/21 03:28:14;;;;;;;6.72;3.97;;;1.60;99.90;;;;;;5055653;28;20063;-90
2022/01/21 03:30:40;;;;;;;10.80;4.22;;;1.60;99.90;;;;;;5056388;28;20031;-91
2022/01/21 03:33:06;;;;;;;9.00;4.00;;;1.60;99.90;;;;;;5054599;28;20028;-91
2022/01/21 03:35:32;;;;;;;6.68;3.58;;;1.60;99.90;;;;;;5088350;28;20025;-91
2022/01/21 03:40:38;;;;;;;9.75;4.40;;;1.60;99.90;;;;;;5849953;23;20112;-82
2022/01/21 03:43:04;;;;;;;8.57;4.43;;;1.50;99.90;;;;;;4976441;23;20087;-83
2022/01/21 03:45:30;;;;;;;7.65;4.25;;;1.60;99.90;;;;;;4935748;29;20060;-83
2022/01/21 03:47:55;;;;;;;6.25;3.22;;;1.50;99.90;;;;;;4935714;29;20163;-83
2022/01/21 03:50:31;;;;;;;8.90;3.90;;;1.50;99.90;;;;;;4935358;29;20042;-83
2022/01/21 03:52:57;;;;;;;7.03;4.15;;;1.50;99.90;;;;;;4934949;29;20039;-83
2022/01/21 03:55:23;;;;;;;10.05;3.80;;;1.50;99.90;;;;;;4935240;29;20062;-82
2022/01/21 03:57:49;;;;;;;10.90;4.15;;;1.50;99.90;;;;;;4935693;29;20035;-83
2022/01/21 04:00:23;;;;;;;9.23;4.05;;;1.50;99.90;;;;;;4935192;29;20087;-83
2022/01/21 04:02:49;;;;;;;11.02;4.30;;;1.50;99.90;;;;;;4934314;29;20028;-83
2022/01/21 04:05:15;;;;;;;11.23;3.85;;;1.50;99.90;;;;;;4934984;29;20035;-83
2022/01/21 04:07:41;;;;;;;6.90;3.75;;;1.50;99.90;;;;;;4935097;29;20040;-82
2022/01/21 04:10:07;;;;;;;9.23;3.90;;;1.90;99.90;;;;;;4934998;29;20444;-83
2022/01/21 04:12:33;;;;;;;10.50;5.03;;;1.40;99.90;;;;;;4933881;29;20496;-83
2022/01/21 04:14:59;;;;;;;5.22;4.07;;;1.40;99.90;;;;;;4934209;29;20059;-83
2022/01/21 04:17:28;;;;;;;10.32;4.22;;;1.40;99.90;;;;;;4934919;29;20061;-83
2022/01/21 04:19:54;;;;;;;11.98;4.68;;;1.30;99.90;;;;;;4941353;29;20031;-83
2022/01/21 04:22:20;;;;;;;8.50;3.90;;;1.30;99.90;;;;;;4958298;28;20067;-83
2022/01/21 04:24:48;;;;;;;12.57;4.00;;;1.40;99.90;;;;;;4935261;29;20020;-83
2022/01/21 04:27:13;;;;;;;9.68;4.32;;;1.40;99.90;;;;;;4934329;29;20107;-83
2022/01/21 04:29:39;;;;;;;6.80;3.67;;;1.30;99.90;;;;;;4935351;29;20568;-83
2022/01/21 04:32:05;;;;;;;8.65;4.40;;;1.30;99.90;;;;;;4934767;29;20111;-83
2022/01/21 04:34:31;;;;;;;8.88;3.88;;;1.30;99.90;;;;;;4934353;29;20028;-83
2022/01/21 04:36:57;;;;;;;8.50;4.63;;;1.90;99.90;;;;;;4933203;29;20036;-83
2022/01/21 04:39:29;;;;;;;7.40;4.40;;;1.30;99.90;;;;;;4934539;29;20055;-83
2022/01/21 04:47:23;;;;;;;11.05;4.82;;;1.20;99.90;;;;;;4934086;29;20055;-83
2022/01/21 04:49:50;;;;;;;9.90;4.53;;;1.20;99.90;;;;;;4932749;29;20032;-83
2022/01/21 04:52:16;;;;;;;9.25;4.18;;;1.20;99.90;;;;;;4934590;29;20036;-83
2022/01/21 04:54:41;;;;;;;11.32;4.60;;;1.90;99.90;;;;;;4934604;29;20079;-83
2022/01/21 04:57:07;;;;;;;9.18;4.03;;;1.90;99.90;;;;;;4934455;29;20031;-83
2022/01/21 04:59:35;;;;;;;9.48;4.13;;;1.20;99.90;;;;;;4933494;29;20448;-83
2022/01/21 05:02:00;;;;;;;9.32;4.20;;;1.10;99.90;;;;;;4934606;29;20027;-83
2022/01/21 05:04:26;;;;;;;7.88;4.03;;;1.10;99.90;;;;;;4933791;29;20039;-83
2022/01/21 05:06:53;;;;;;;11.43;4.45;;;1.20;99.90;;;;;;4934116;29;20031;-82
2022/01/21 05:09:22;;;;;;;10.07;3.85;;;1.20;99.90;;;;;;4933878;29;20066;-83
2022/01/21 05:11:51;;;;;;;9.95;4.05;;;1.10;99.90;;;;;;4934128;29;20032;-83
2022/01/21 05:16:47;;;;;;;10.35;4.03;;;1.20;99.90;;;;;;4933946;29;20032;-83
2022/01/21 05:19:16;;;;;;;7.88;3.65;;;1.20;99.90;;;;;;4933732;29;20035;-83
2022/01/21 05:21:43;;;;;;;10.10;4.20;;;1.10;99.90;;;;;;4934243;29;20036;-83
2022/01/21 05:24:09;;;;;;;9.85;3.85;;;1.10;99.90;;;;;;4933860;29;20042;-83
2022/01/21 05:26:40;;;;;;;7.25;3.50;;;1.00;99.90;;;;;;4934423;29;20035;-83
2022/01/21 05:29:07;;;;;;;8.20;4.03;;;1.10;99.90;;;;;;4933431;29;20099;-83
2022/01/21 05:31:34;;;;;;;9.80;4.10;;;1.10;99.90;;;;;;4933957;29;20494;-83
2022/01/21 05:34:00;;;;;;;11.65;3.95;;;1.10;99.90;;;;;;4933739;29;20028;-83
2022/01/21 05:36:30;;;;;;;10.60;4.63;;;1.10;99.90;;;;;;4933715;29;20377;-83
2022/01/21 05:38:58;;;;;;;13.02;3.70;;;1.10;99.90;;;;;;4934298;29;20055;-84
2022/01/21 05:41:24;;;;;;;7.40;3.45;;;1.10;99.90;;;;;;4933500;29;20039;-84
2022/01/21 05:43:59;;;;;;;10.00;3.35;;;1.10;99.90;;;;;;4933602;29;20036;-83
2022/01/21 05:49:09;;;;;;;10.00;3.67;;;1.10;99.90;;;;;;4933436;29;20054;-83
2022/01/21 05:51:35;;;;;;;8.52;4.13;;;1.00;99.90;;;;;;4933732;29;20024;-83
2022/01/21 05:54:00;;;;;;;7.78;3.75;;;1.10;99.90;;;;;;4934672;29;20392;-83
2022/01/21 05:56:27;;;;;;;8.98;3.90;;;1.10;99.90;;;;;;4933611;29;20031;-83
2022/01/21 05:58:52;;;;;;;12.38;5.00;;;1.10;99.90;;;;;;4933507;29;20028;-83
2022/01/21 06:01:18;;;;;;;10.40;3.97;;;1.10;99.90;;;;;;4933667;29;20030;-83
2022/01/21 06:03:45;;;;;;;10.40;4.43;;;1.10;99.90;;;;;;4933969;29;20024;-83
2022/01/21 06:06:10;;;;;;;11.88;5.75;;;1.10;99.90;;;;;;4933771;29;20032;-83
2022/01/21 06:08:39;;;;;;;10.80;3.78;;;1.00;99.90;;;;;;4947593;29;20046;-83
2022/01/21 06:11:05;;;;;;;6.47;3.78;;;1.50;99.90;;;;;;4933311;29;20027;-83
2022/01/21 06:13:32;;;;;;;9.25;3.72;;;1.00;99.90;;;;;;4933571;29;20038;-83
2022/01/21 06:15:59;;;;;;;13.80;5.03;;;1.00;99.90;;;;;;4933523;29;20028;-83
2022/01/21 06:18:25;;;;;;;8.43;3.28;;;1.00;99.90;;;;;;4933196;29;20087;-83
2022/01/21 06:20:51;;;;;;;8.32;4.22;;;0.90;99.90;;;;;;4933921;29;20485;-83
2022/01/21 06:23:17;;;;;;;13.18;4.85;;;1.00;99.90;;;;;;4933437;29;20063;-83
2022/01/21 06:25:43;;;;;;;9.75;4.10;;;1.00;99.90;;;;;;4933558;29;20140;-83
2022/01/21 06:28:09;;;;;;;8.90;3.90;;;1.00;99.90;;;;;;4933014;29;20130;-83
2022/01/21 06:30:35;;;;;;;8.13;4.07;;;1.00;99.90;;;;;;4933679;29;20075;-83
2022/01/21 06:33:00;;;;;;;12.45;4.57;;;1.00;99.90;;;;;;4929912;29;20028;-83
2022/01/21 06:35:26;;;;;;;9.23;4.57;;;1.00;99.90;;;;;;4934608;29;20047;-83
2022/01/21 06:37:52;;;;;;;7.65;3.83;;;1.00;99.90;;;;;;4935994;29;20043;-83
2022/01/21 06:40:21;;;;;;;7.60;4.22;;;0.90;99.90;;;;;;4935868;29;20385;-83
2022/01/21 06:42:48;;;;;;;14.38;5.15;;;0.90;99.90;;;;;;4936062;29;20172;-83
2022/01/21 06:45:14;;;;;;;12.07;4.68;;;0.90;99.90;;;;;;4936573;29;20517;-84
2022/01/21 06:47:40;;;;;;;12.48;4.80;;;0.90;99.90;;;;;;4937115;29;20070;-83
2022/01/21 06:50:06;;;;;;;10.88;5.25;;;0.90;99.90;;;;;;4936571;29;20035;-83
2022/01/21 06:52:32;;;;;;;11.13;5.05;;;0.90;99.90;;;;;;4935703;29;20032;-83
2022/01/21 06:54:59;;;;;;;10.13;5.18;;;0.90;99.90;;;;;;4935656;29;20032;-83
2022/01/21 06:57:25;;;;;;;9.75;4.85;;;0.90;99.90;;;;;;4934777;29;20046;-83
2022/01/21 06:59:51;;;;;;;9.40;4.95;;;0.90;99.90;;;;;;4936615;29;20036;-82
2022/01/21 07:02:18;;;;;;;10.27;5.07;;;0.90;99.90;;;;;;4936173;29;20097;-83
2022/01/21 07:04:49;;;;;;;10.38;5.22;;;1.00;99.90;;;;;;4936209;29;20036;-83
2022/01/21 07:07:16;;;;;;;11.77;6.07;;;1.00;99.90;;;;;;4936107;29;20039;-83
2022/01/21 07:09:43;;;;;;;11.32;5.30;;;0.90;99.90;;;;;;4936094;29;20027;-82
2022/01/21 07:12:09;;;;;;;11.02;4.65;;;0.90;99.90;;;;;;4935708;29;20384;-83
2022/01/21 07:14:35;;;;;;;9.13;5.00;;;0.90;99.90;;;;;;4936164;29;20067;-86
2022/01/21 07:17:01;;;;;;;10.40;5.25;;;0.90;99.90;;;;;;4935903;29;20082;-86
2022/01/21 07:19:26;;;;;;;10.35;4.95;;;1.00;99.90;;;;;;4936108;29;20079;-86
2022/01/21 07:21:52;;;;;;;14.65;6.45;;;1.00;99.90;;;;;;4935619;29;20032;-86
2022/01/21 07:24:19;;;;;;;9.93;5.68;;;1.50;99.90;;;;;;4936170;29;20083;-85
2022/01/21 07:26:44;;;;;;;14.23;5.63;;;1.00;99.90;;;;;;4934103;29;20118;-84
2022/01/21 07:29:10;;;;;;;12.43;6.72;;;1.00;99.90;;;;;;4935810;29;20127;-86
2022/01/21 07:31:36;;;;;;;11.88;5.68;;;1.00;99.90;;;;;;4935466;29;20046;-86
2022/01/21 07:34:04;;;;;;;10.15;5.10;;;1.10;99.90;;;;;;4935767;29;20042;-86
2022/01/21 07:36:31;;;;;;;8.77;5.03;;;1.10;99.90;;;;;;4935353;29;20115;-86
2022/01/21 07:38:57;;;;;;;13.00;6.45;;;1.20;99.90;;;;;;4935866;29;20373;-85
2022/01/21 07:41:23;;;;;;;12.85;6.00;;;1.10;99.90;;;;;;4935516;29;20032;-85
2022/01/21 07:43:48;;;;;;;9.88;5.38;;;1.20;99.90;;;;;;4935362;29;20054;-86
2022/01/21 07:46:15;;;;;;;11.30;5.72;;;1.30;99.90;;;;;;4935330;29;20028;-85
2022/01/21 07:48:41;;;;;;;11.35;5.70;;;1.30;99.90;;;;;;4935665;29;20043;-86
2022/01/21 07:51:06;;;;;;;13.15;5.63;;;1.40;99.90;;;;;;4933962;29;20034;-86
2022/01/21 07:53:32;;;;;;;12.23;5.28;;;1.80;99.90;;;;;;4934512;29;20040;-86
2022/01/21 07:55:58;;;;;;;11.88;5.68;;;2.70;99.90;;;;;;4935079;29;20024;-86
2022/01/21 07:58:23;;;;;;;12.95;6.13;;;3.40;99.90;;;;;;4933411;29;20512;-85
2022/01/21 08:00:49;;;;;;;8.55;4.95;;;3.80;99.90;;;;;;4935102;29;20031;-86
2022/01/21 08:03:15;;;;;;;13.95;5.47;;;3.10;99.90;;;;;;4935248;29;20400;-86
2022/01/21 08:05:43;;;;;;;11.82;5.35;;;3.60;99.90;;;;;;4935503;29;20560;-86
2022/01/21 08:08:09;;;;;;;8.48;4.50;;;4.80;99.90;;;;;;4934928;29;20102;-88
2022/01/21 08:10:34;;;;;;;11.00;5.55;;;5.50;99.90;;;;;;4934483;29;20508;-85
2022/01/21 08:13:00;;;;;;;10.13;4.90;;;5.90;98.30;;;;;;4935468;29;20039;-87
2022/01/21 08:15:27;;;;;;;10.20;5.40;;;5.90;96.70;;;;;;4935984;29;20511;-87
2022/01/21 08:17:53;;;;;;;10.23;5.30;;;5.80;95.10;;;;;;4935713;29;20027;-86
2022/01/21 08:20:19;;;;;;;9.68;4.82;;;6.70;92.70;;;;;;4933160;29;20128;-86
2022/01/21 08:22:45;;;;;;;10.75;5.35;;;7.90;76.10;;;;;;4935031;29;20027;-86
2022/01/21 08:25:11;;;;;;;10.38;5.60;;;8.40;66.30;;;;;;4934639;29;20407;-87
2022/01/21 08:27:37;;;;;;;8.68;4.78;;;10.30;51.30;;;;;;4935134;29;20410;-87
2022/01/21 08:30:07;;;;;;;10.15;4.32;;;11.50;34.60;;;;;;4935338;29;20039;-86
2022/01/21 08:32:33;;;;;;;7.90;4.15;;;11.30;36.50;;;;;;4934522;29;20122;-87
2022/01/21 08:34:59;;;;;;;8.02;4.40;;;12.10;31.90;;;;;;4934417;29;20043;-87
2022/01/21 08:37:24;;;;;;;9.63;4.70;;;12.00;30.00;;;;;;4934509;29;20095;-86
2022/01/21 08:39:51;;;;;;;8.18;5.80;;;12.40;27.20;;;;;;4934619;29;20481;-86
2022/01/21 08:42:16;;;;;;;7.22;3.92;;;14.60;21.90;;;;;;4934123;29;20136;-86
2022/01/21 08:44:43;;;;;;;6.30;4.47;;;14.10;14.50;;;;;;4935121;29;20118;-86
2022/01/21 08:47:08;;;;;;;8.02;4.20;;;14.60;15.80;;;;;;4934596;29;20023;-86
2022/01/21 08:49:35;;;;;;;7.90;5.78;;;15.10;7.90;;;;;;4933847;29;20054;-87
2022/01/21 08:52:01;;;;;;;7.63;4.50;;;14.80;11.40;;;;;;4934302;29;20015;-87
2022/01/21 08:54:28;;;;;;;10.05;4.45;;;14.00;16.30;;;;;;4934695;29;20032;-87
2022/01/21 08:56:54;;;;;;;9.98;5.03;;;14.80;10.40;;;;;;4933438;29;20020;-87
2022/01/21 08:59:21;;;;;;;8.73;5.10;;;16.00;3.90;;;;;;4934069;29;20034;-86
2022/01/21 09:01:49;;;;;;;7.18;4.10;;;16.10;2.60;;;;;;4932368;29;20038;-86
2022/01/21 09:04:17;;;;;;;8.45;4.70;;;15.50;15.00;;;;;;4932805;29;20055;-87
2022/01/21 09:06:43;;;;;;;8.25;4.68;;;15.70;12.50;;;;;;4933962;29;20528;-87
2022/01/21 09:09:09;;;;;;;8.65;4.40;;;16.80;1.00;;;;;;4933557;29;20036;-87
2022/01/21 09:11:35;;;;;;;8.68;3.97;;;17.30;1.00;;;;;;4935762;29;20042;-87
2022/01/21 09:14:02;;;;;;;8.13;4.00;;;16.50;2.20;;;;;;4933197;29;20028;-87
2022/01/21 09:16:28;;;;;;;5.13;3.47;;;16.60;3.50;;;;;;4933603;29;20027;-87
2022/01/21 09:18:56;;;;;;;9.15;4.10;;;17.40;1.00;;;;;;4934003;29;20024;-87
2022/01/21 09:21:25;;;;;;;8.40;4.13;;;18.30;1.00;;;;;;4934168;29;20079;-88
2022/01/21 09:23:51;;;;;;;5.47;3.70;;;19.00;1.00;;;;;;4934207;29;20488;-88
2022/01/21 09:26:19;;;;;;;6.78;3.80;;;18.20;1.00;;;;;;4933572;29;20027;-88
2022/01/21 09:28:45;;;;;;;7.75;4.30;;;18.70;1.00;;;;;;4933688;29;20063;-88
2022/01/21 09:31:11;;;;;;;8.50;5.55;;;19.90;1.00;;;;;;4934084;29;20532;-91
2022/01/21 09:33:38;;;;;;;6.40;4.32;;;19.90;1.00;;;;;;4933290;29;20039;-89
2022/01/21 09:36:04;;;;;;;8.38;5.35;;;20.70;1.00;;;;;;4934367;29;20095;-89
2022/01/21 09:38:30;;;;;;;7.97;4.95;;;20.80;1.00;;;;;;4933997;29;20038;-88
2022/01/21 09:40:56;;;;;;;7.60;4.78;;;21.20;1.00;;;;;;4933451;29;20238;-87
2022/01/21 09:43:22;;;;;;;7.38;4.90;;;20.50;1.00;;;;;;4933906;29;20044;-87
2022/01/21 09:45:52;;;;;;;8.65;5.07;;;18.50;1.00;;;;;;4934114;29;20087;-86
2022/01/21 09:48:29;;;;;;;7.10;5.20;;;19.10;1.00;;;;;;4933748;29;20039;-85
2022/01/21 09:50:59;;;;;;;9.32;4.55;;;18.70;1.00;;;;;;4933110;29;20024;-84
2022/01/21 09:53:35;;;;;;;5.78;4.00;;;19.80;1.00;;;;;;4933373;29;20039;-84
2022/01/21 09:56:04;;;;;;;8.27;4.35;;;21.80;1.00;;;;;;4933410;29;20388;-85
2022/01/21 09:58:31;;;;;;;6.72;4.03;;;22.20;1.00;;;;;;4933369;29;20031;-86
2022/01/21 10:00:59;;;;;;;6.97;4.22;;;21.20;1.00;;;;;;4933059;29;20038;-86
2022/01/21 10:03:25;;;;;;;7.65;4.63;;;20.70;1.00;;;;;;4933701;29;20463;-86
2022/01/21 10:05:53;;;;;;;7.65;4.78;;;21.00;1.00;;;;;;4933978;29;20082;-86
2022/01/21 10:08:21;;;;;;;7.93;5.00;;;21.50;1.00;;;;;;4933598;29;20036;-86
2022/01/21 10:10:47;;;;;;;7.00;4.28;;;22.20;1.00;;;;;;4935235;29;20031;-86
2022/01/21 10:13:18;;;;;;;10.13;4.47;;;21.70;1.00;;;;;;4937096;29;20055;-86
2022/01/21 10:15:45;;;;;;;7.00;4.28;;;21.70;1.00;;;;;;4937085;29;20078;-86
2022/01/21 10:18:19;;;;;;;6.63;4.28;;;23.40;1.00;;;;;;4937184;29;20051;-86
2022/01/21 10:21:01;;;;;;;7.35;4.80;;;24.30;1.00;;;;;;4935031;29;20082;-86
2022/01/21 10:23:29;;;;;;;8.15;4.70;;;20.80;1.00;;;;;;4936562;29;20067;-86
2022/01/21 10:26:06;;;;;;;5.47;4.10;;;22.50;1.00;;;;;;4937121;29;20071;-86
2022/01/21 10:28:33;;;;;;;10.65;5.20;;;23.30;1.00;;;;;;4937046;29;20412;-85
2022/01/21 10:31:14;;;;;;;7.93;4.75;;;22.40;1.00;;;;;;4936405;29;20119;-86
2022/01/21 10:33:47;;;;;;;8.27;4.00;;;21.70;1.00;;;;;;4922794;29;20124;-86
2022/01/21 10:36:26;;;;;;;6.05;3.90;;;21.90;1.00;;;;;;4936573;29;20504;-87
2022/01/21 10:39:09;;;;;;;7.82;3.65;;;21.50;1.00;;;;;;4936478;29;20038;-85
2022/01/21 10:41:35;;;;;;;6.68;4.07;;;21.60;1.00;;;;;;4936658;29;20087;-87
2022/01/21 10:44:13;;;;;;;5.95;3.60;;;22.70;1.00;;;;;;4936021;29;20508;-86
2022/01/21 10:46:41;;;;;;;6.55;3.70;;;24.90;1.00;;;;;;4935189;29;20042;-87
2022/01/21 10:49:08;;;;;;;6.90;3.83;;;23.80;1.00;;;;;;4937089;29;20042;-86
2022/01/21 10:51:49;;;;;;;9.05;3.90;;;24.50;1.00;;;;;;4921234;29;20082;-87
2022/01/21 10:54:23;;;;;;;6.70;3.75;;;21.60;1.00;;;;;;4934411;29;20043;-88
2022/01/21 10:57:07;;;;;;;5.97;3.58;;;20.40;1.00;;;;;;4933951;29;20016;-87
2022/01/21 10:59:51;;;;;;;6.32;3.42;;;22.20;1.00;;;;;;4935775;29;20555;-88
2022/01/21 11:02:47;;;;;;;7.63;3.63;;;22.60;1.00;;;;;;4936050;29;20034;-88
2022/01/21 11:05:28;;;;;;;7.80;3.55;;;21.70;1.00;;;;;;4936151;29;20460;-87
2022/01/21 11:08:05;;;;;;;6.57;3.28;;;23.40;1.00;;;;;;4935311;29;20049;-95
2022/01/21 11:10:34;;;;;;;6.00;3.60;;;24.40;1.00;;;;;;4937254;29;20064;-90
2022/01/21 11:13:13;;;;;;;5.72;3.83;;;23.10;1.00;;;;;;4936727;29;20031;-90
2022/01/21 11:15:45;;;;;;;5.75;3.58;;;24.40;1.00;;;;;;4922197;29;20027;-89
2022/01/21 11:18:14;;;;;;;6.50;3.47;;;24.10;1.00;;;;;;4935477;29;20428;-92
2022/01/21 11:20:42;;;;;;;5.57;3.67;;;24.50;1.00;;;;;;4934830;29;20083;-86
2022/01/21 11:23:10;;;;;;;6.22;3.60;;;23.80;1.00;;;;;;4937092;29;20050;-93
2022/01/21 11:26:01;;;;;;;5.85;3.40;;;25.10;1.00;;;;;;4936902;29;20129;-92
2022/01/21 11:28:36;;;;;;;6.72;4.00;;;25.20;1.00;;;;;;4935558;29;20051;-96
2022/01/21 11:31:03;;;;;;;7.95;3.75;;;23.60;1.00;;;;;;4936210;29;20019;-86
2022/01/21 11:33:28;;;;;;;6.05;3.10;;;23.70;1.00;;;;;;4936736;29;20050;-85
2022/01/21 11:35:54;;;;;;;6.68;3.47;;;25.50;1.00;;;;;;4932981;29;20036;-86
2022/01/21 11:38:23;;;;;;;3.65;2.95;;;26.40;1.00;;;;;;4935401;29;20048;-84
2022/01/21 11:40:50;;;;;;;6.70;3.47;;;23.60;1.00;;;;;;4933557;29;20403;-86
2022/01/21 11:43:18;;;;;;;5.45;3.28;;;23.30;1.00;;;;;;4935160;29;20420;-85
2022/01/21 11:51:31;;;;;;;10.52;6.05;;;21.50;1.00;;;;;;4935671;29;20035;-84
2022/01/21 11:54:06;;;;;;;6.68;3.60;;;22.30;1.00;;;;;;4935642;29;20027;-84
2022/01/21 11:56:35;;;;;;;6.55;3.40;;;22.80;1.00;;;;;;4935521;29;20031;-88
2022/01/21 11:59:07;;;;;;;6.22;4.00;;;21.90;1.00;;;;;;4935248;29;20051;-85
2022/01/21 12:01:47;;;;;;;5.03;3.30;;;22.80;1.00;;;;;;4935589;29;20020;-89
2022/01/21 12:04:34;;;;;;;5.43;3.42;;;22.40;1.00;;;;;;4934904;29;20118;-88
2022/01/21 12:07:01;;;;;;;6.90;3.05;;;23.80;1.00;;;;;;4895434;29;20068;-89
2022/01/21 12:09:55;;;;;;;4.30;2.92;;;23.30;1.00;;;;;;4895330;29;20064;-89
2022/01/21 12:12:23;;;;;;;4.50;2.60;;;22.20;1.00;;;;;;4893015;29;20092;-88
2022/01/21 12:14:54;;;;;;;4.35;2.85;;;19.00;1.00;;;;;;4895054;29;20032;-88
2022/01/21 12:17:50;;;;;;;6.65;4.32;;;21.10;1.00;;;;;;4894836;29;20040;-88
2022/01/21 12:20:16;;;;;;;6.20;3.08;;;21.50;1.00;;;;;;4895007;29;20092;-87
2022/01/21 12:22:42;;;;;;;6.82;3.53;;;21.80;1.00;;;;;;4895095;29;20033;-87
2022/01/21 12:25:09;;;;;;;4.78;3.45;;;20.80;1.00;;;;;;4878843;29;20033;-86
2022/01/21 12:27:37;;;;;;;6.30;3.85;;;16.50;1.00;;;;;;4880003;29;20695;-86
2022/01/21 12:30:23;;;;;;;5.03;2.80;;;17.50;1.00;;;;;;4895218;29;20397;-85
2022/01/21 12:32:59;;;;;;;6.75;3.70;;;19.50;1.00;;;;;;4894949;29;20032;-87
2022/01/21 12:35:25;;;;;;;3.75;2.55;;;20.90;1.00;;;;;;4878702;29;20044;-86
2022/01/21 12:40:54;;;;;;;5.40;2.90;;;19.00;1.00;;;;;;4857098;29;20037;-87
2022/01/21 12:43:46;;;;;;;2.42;1.92;;;21.10;1.00;;;;;;4866792;29;20044;-86
2022/01/21 12:46:15;;;;;;;6.28;3.53;;;21.60;1.00;;;;;;4912819;29;20017;-87
2022/01/21 12:48:43;;;;;;;4.55;2.88;;;20.00;1.00;;;;;;4913534;29;20044;-87
2022/01/21 12:56:45;;;;;;;6.20;2.97;;;19.20;1.00;;;;;;4913745;29;20569;-87
2022/01/21 12:59:21;;;;;;;7.72;3.80;;;19.90;1.00;;;;;;4912932;29;20028;-87
2022/01/21 13:01:48;;;;;;;6.03;3.28;;;20.80;1.00;;;;;;4913085;29;20422;-87
2022/01/21 13:04:49;;;;;;;8.05;3.75;;;21.50;1.00;;;;;;4913132;29;20103;-87
2022/01/21 13:07:32;;;;;;;5.03;2.60;;;21.90;1.00;;;;;;4912765;29;20119;-87
2022/01/21 13:10:26;;;;;;;3.88;2.45;;;21.20;1.00;;;;;;4912971;29;20135;-87
2022/01/21 13:15:49;;;;;;;4.47;2.28;;;20.40;1.00;;;;;;4916082;29;20071;-87
2022/01/21 13:18:23;;;;;;;5.07;2.10;;;20.40;1.00;;;;;;4931509;29;20023;-87
2022/01/21 13:20:52;;;;;;;3.72;2.17;;;20.30;1.00;;;;;;4934325;29;20039;-87
2022/01/21 13:23:40;;;;;;;5.50;2.03;;;20.30;1.00;;;;;;4933842;29;20099;-87
2022/01/21 13:26:10;;;;;;;4.03;2.20;;;21.40;1.00;;;;;;4933807;29;20548;-86
2022/01/21 13:28:51;;;;;;;7.00;3.03;;;21.50;1.00;;;;;;4933820;29;20054;-87
2022/01/21 13:31:17;;;;;;;9.75;4.70;;;19.30;1.00;;;;;;4933539;29;20028;-87
2022/01/21 13:33:43;;;;;;;7.70;4.45;;;18.90;1.00;;;;;;4933978;29;20040;-87
2022/01/21 13:36:10;;;;;;;7.57;3.05;;;19.40;1.00;;;;;;4933630;29;20028;-87
2022/01/21 13:38:40;;;;;;;6.85;3.30;;;19.00;1.00;;;;;;4934030;29;20083;-86
2022/01/21 13:41:10;;;;;;;7.88;4.75;;;18.30;1.00;;;;;;4933852;29;20110;-85
2022/01/21 13:43:36;;;;;;;7.38;3.30;;;19.00;1.00;;;;;;4933731;29;20069;-87
2022/01/21 13:46:08;;;;;;;6.28;3.92;;;18.40;1.00;;;;;;4936294;29;20455;-86
2022/01/21 13:48:36;;;;;;;5.68;3.08;;;18.70;1.00;;;;;;4922895;29;20048;-86
2022/01/21 13:51:04;;;;;;;4.90;2.50;;;18.00;1.00;;;;;;4934081;29;20027;-87
2022/01/21 13:53:30;;;;;;;6.07;3.03;;;17.00;1.00;;;;;;4937525;29;20063;-87
2022/01/21 13:56:00;;;;;;;5.28;2.80;;;16.50;1.00;;;;;;4937363;29;20031;-87
2022/01/21 13:58:31;;;;;;;4.80;2.88;;;17.30;1.00;;;;;;4937309;29;20075;-87
2022/01/21 14:01:07;;;;;;;4.95;2.78;;;17.90;1.00;;;;;;4937218;29;20032;-86
2022/01/21 14:03:37;;;;;;;6.47;2.83;;;17.50;1.00;;;;;;4922370;29;20555;-86
2022/01/21 14:06:16;;;;;;;6.72;3.00;;;16.70;1.00;;;;;;4934083;29;20108;-87
2022/01/21 14:08:50;;;;;;;5.15;3.00;;;16.60;1.00;;;;;;4937367;29;20130;-86
2022/01/21 14:11:28;;;;;;;4.50;2.97;;;15.70;2.50;;;;;;4936997;29;20028;-86